createdAt,value
2019-05-01T00:01:36.194Z,3.10
2019-05-01T00:04:16.564Z,3.30
2019-05-01T00:06:45.949Z,3.98
2019-05-01T00:09:13.207Z,2.50
2019-05-01T00:11:40.675Z,3.02
2019-05-01T00:14:10.018Z,3.50
2019-05-01T00:16:36.871Z,2.90
2019-05-01T00:19:03.622Z,2.90
2019-05-01T00:21:30.302Z,3.08
2019-05-01T00:23:59.275Z,2.70
2019-05-01T00:26:27.245Z,2.75
2019-05-01T00:28:55.931Z,2.55
2019-05-01T00:31:23.099Z,2.98
2019-05-01T00:33:49.749Z,3.00
2019-05-01T00:36:18.156Z,2.80
2019-05-01T00:39:07.700Z,2.80
2019-05-01T00:41:37.237Z,2.52
2019-05-01T00:44:04.310Z,2.90
2019-05-01T00:46:30.759Z,2.40
2019-05-01T00:48:57.688Z,2.50
2019-05-01T00:51:26.058Z,2.90
2019-05-01T00:53:53.075Z,3.02
2019-05-01T00:56:23.901Z,2.60
2019-05-01T00:59:08.982Z,2.72
2019-05-01T01:01:54.280Z,2.35
2019-05-01T01:04:23.120Z,2.27
2019-05-01T01:06:54.651Z,2.20
2019-05-01T01:09:23.351Z,2.12
2019-05-01T01:11:52.922Z,2.22
2019-05-01T01:14:19.548Z,2.33
2019-05-01T01:16:47.366Z,1.82
2019-05-01T01:19:13.877Z,2.10
2019-05-01T01:21:42.742Z,2.05
2019-05-01T01:24:09.317Z,2.17
2019-05-01T01:26:40.731Z,1.80
2019-05-01T01:29:09.485Z,2.05
2019-05-01T01:31:37.762Z,1.60
2019-05-01T01:34:07.351Z,1.82
2019-05-01T01:36:35.430Z,1.82
2019-05-01T01:39:02.591Z,1.98
2019-05-01T01:41:35.715Z,1.82
2019-05-01T01:44:05.035Z,1.85
2019-05-01T01:46:33.920Z,1.80
2019-05-01T01:49:01.016Z,1.90
2019-05-01T01:51:28.104Z,1.67
2019-05-01T01:53:55.707Z,1.37
2019-05-01T01:56:24.008Z,1.85
2019-05-01T01:58:53.211Z,1.80
2019-05-01T02:01:21.855Z,1.50
2019-05-01T02:03:51.207Z,1.62
2019-05-01T02:06:18.267Z,1.37
2019-05-01T02:08:56.287Z,1.60
2019-05-01T02:11:15.304Z,1.40
2019-05-01T02:13:42.121Z,1.37
2019-05-01T02:16:08.672Z,1.52
2019-05-01T02:18:35.439Z,1.57
2019-05-01T02:21:04.728Z,1.50
2019-05-01T02:23:31.388Z,1.80
2019-05-01T02:26:01.632Z,1.52
2019-05-01T02:28:34.709Z,1.32
2019-05-01T02:33:42.307Z,1.52
2019-05-01T02:36:10.505Z,1.32
2019-05-01T02:38:39.839Z,1.60
2019-05-01T02:41:09.647Z,1.10
2019-05-01T02:43:43.059Z,1.35
2019-05-01T02:46:12.254Z,1.55
2019-05-01T02:48:45.781Z,1.70
2019-05-01T02:51:12.785Z,1.00
2019-05-01T02:53:42.641Z,1.00
2019-05-01T02:56:15.658Z,1.10
2019-05-01T02:58:43.988Z,1.10
2019-05-01T03:01:14.384Z,0.98
2019-05-01T03:03:42.354Z,1.10
2019-05-01T03:06:09.743Z,1.07
2019-05-01T03:08:38.167Z,0.90
2019-05-01T03:11:04.690Z,1.10
2019-05-01T03:13:31.974Z,0.82
2019-05-01T03:15:59.302Z,1.05
2019-05-01T03:18:27.762Z,1.10
2019-05-01T03:21:05.869Z,1.20
2019-05-01T03:23:38.024Z,0.90
2019-05-01T03:26:05.030Z,1.32
2019-05-01T03:28:33.162Z,1.00
2019-05-01T03:31:00.303Z,1.10
2019-05-01T03:33:26.926Z,1.00
2019-05-01T03:35:53.465Z,1.07
2019-05-01T03:38:20.535Z,1.07
2019-05-01T03:40:49.101Z,1.00
2019-05-01T03:43:16.706Z,0.98
2019-05-01T03:45:43.385Z,1.07
2019-05-01T03:48:14.196Z,0.98
2019-05-01T03:50:46.940Z,1.20
2019-05-01T03:53:14.031Z,1.05
2019-05-01T03:55:42.721Z,0.98
2019-05-01T03:58:11.130Z,0.90
2019-05-01T04:00:40.311Z,1.15
2019-05-01T04:06:07.809Z,0.95
2019-05-01T04:08:36.745Z,0.98
2019-05-01T04:11:04.677Z,1.12
2019-05-01T04:13:53.906Z,1.12
2019-05-01T04:16:21.326Z,1.10
2019-05-01T04:18:48.474Z,1.75
2019-05-01T04:21:15.287Z,1.10
2019-05-01T04:23:42.472Z,1.30
2019-05-01T04:26:09.477Z,1.35
2019-05-01T04:28:55.208Z,1.35
2019-05-01T04:31:23.777Z,1.17
2019-05-01T04:33:52.962Z,1.12
2019-05-01T04:36:21.412Z,1.60
2019-05-01T04:38:50.705Z,1.30
2019-05-01T04:41:17.739Z,1.42
2019-05-01T04:43:44.611Z,1.30
2019-05-01T04:46:24.393Z,1.60
2019-05-01T04:48:53.114Z,1.65
2019-05-01T04:51:20.558Z,1.30
2019-05-01T04:53:49.585Z,1.60
2019-05-01T04:56:16.544Z,1.40
2019-05-01T04:58:45.001Z,1.60
2019-05-01T05:01:12.849Z,1.47
2019-05-01T05:03:39.606Z,1.72
2019-05-01T05:06:06.785Z,1.45
2019-05-01T05:08:53.436Z,1.50
2019-05-01T05:11:22.287Z,1.75
2019-05-01T05:14:08.446Z,1.30
2019-05-01T05:16:49.011Z,1.65
2019-05-01T05:19:16.190Z,1.85
2019-05-01T05:21:42.872Z,1.55
2019-05-01T05:24:10.083Z,1.45
2019-05-01T05:26:37.263Z,1.57
2019-05-01T05:29:03.869Z,1.77
2019-05-01T05:31:33.415Z,1.55
2019-05-01T05:34:02.828Z,1.70
2019-05-01T05:36:31.960Z,2.15
2019-05-01T05:39:03.261Z,2.25
2019-05-01T05:41:34.958Z,1.77
2019-05-01T05:44:01.890Z,1.90
2019-05-01T05:46:30.304Z,2.80
2019-05-01T05:48:58.548Z,3.90
2019-05-01T05:51:30.389Z,3.87
2019-05-01T05:54:11.252Z,4.50
2019-05-01T05:56:43.395Z,2.72
2019-05-01T05:59:17.986Z,3.27
2019-05-01T06:01:52.966Z,2.72
2019-05-01T06:04:36.630Z,2.33
2019-05-01T06:07:24.143Z,2.92
2019-05-01T06:10:01.065Z,3.58
2019-05-01T06:12:30.036Z,3.05
2019-05-01T06:15:02.349Z,2.62
2019-05-01T06:17:34.441Z,2.70
2019-05-01T06:20:20.893Z,2.83
2019-05-01T06:25:27.291Z,2.85
2019-05-01T06:27:56.236Z,1.92
2019-05-01T06:30:24.704Z,1.95
2019-05-01T06:32:52.854Z,2.27
2019-05-01T06:35:40.209Z,2.70
2019-05-01T06:38:13.411Z,3.33
2019-05-01T06:40:43.053Z,2.17
2019-05-01T06:43:33.585Z,1.82
2019-05-01T06:46:11.235Z,2.20
2019-05-01T06:48:48.797Z,5.40
2019-05-01T06:51:18.900Z,7.10
2019-05-01T06:53:45.905Z,4.33
2019-05-01T06:56:13.666Z,3.10
2019-05-01T06:58:40.373Z,2.25
2019-05-01T07:01:07.027Z,1.65
2019-05-01T07:03:33.539Z,1.87
2019-05-01T07:06:00.079Z,1.70
2019-05-01T07:08:29.573Z,2.00
2019-05-01T07:10:55.194Z,1.90
2019-05-01T07:13:21.689Z,1.85
2019-05-01T07:15:48.490Z,2.08
2019-05-01T07:18:18.858Z,1.75
2019-05-01T07:20:47.359Z,1.80
2019-05-01T07:23:17.371Z,1.57
2019-05-01T07:25:43.198Z,1.75
2019-05-01T07:28:11.118Z,1.60
2019-05-01T07:30:41.558Z,2.02
2019-05-01T07:33:11.979Z,2.27
2019-05-01T07:35:45.518Z,2.35
2019-05-01T07:38:16.924Z,3.08
2019-05-01T07:40:43.592Z,2.00
2019-05-01T07:43:25.778Z,3.98
2019-05-01T07:45:55.947Z,4.67
2019-05-01T07:48:36.262Z,3.17
2019-05-01T07:51:01.933Z,2.45
2019-05-01T07:53:34.259Z,3.10
2019-05-01T07:56:04.584Z,2.62
2019-05-01T07:58:32.843Z,1.55
2019-05-01T08:01:03.803Z,1.72
2019-05-01T08:03:31.793Z,1.75
2019-05-01T08:05:58.333Z,2.65
2019-05-01T08:08:24.904Z,3.08
2019-05-01T08:10:51.588Z,2.60
2019-05-01T08:13:18.346Z,2.40
2019-05-01T08:15:45.199Z,1.92
2019-05-01T08:18:28.197Z,2.72
2019-05-01T08:23:42.685Z,2.12
2019-05-01T08:26:11.372Z,2.83
2019-05-01T08:29:02.991Z,2.65
2019-05-01T08:31:29.141Z,3.05
2019-05-01T08:34:03.861Z,2.75
2019-05-01T08:38:57.319Z,2.90
2019-05-01T08:41:26.991Z,3.20
2019-05-01T08:43:54.078Z,3.33
2019-05-01T08:46:28.928Z,3.42
2019-05-01T08:49:06.920Z,4.00
2019-05-01T08:51:34.852Z,4.80
2019-05-01T08:54:01.948Z,5.80
2019-05-01T08:56:28.687Z,4.45
2019-05-01T08:58:56.767Z,4.28
2019-05-01T09:01:23.403Z,4.05
2019-05-01T09:03:54.290Z,4.10
2019-05-01T09:06:19.366Z,5.22
2019-05-01T09:08:45.924Z,4.92
2019-05-01T09:11:12.539Z,3.83
2019-05-01T09:13:39.174Z,4.25
2019-05-01T09:16:08.273Z,5.17
2019-05-01T09:18:34.935Z,6.70
2019-05-01T09:21:01.774Z,5.83
2019-05-01T09:23:28.513Z,5.72
2019-05-01T09:26:16.229Z,4.85
2019-05-01T09:28:47.960Z,7.47
2019-05-01T09:31:16.452Z,6.80
2019-05-01T09:33:43.978Z,6.00
2019-05-01T09:36:10.831Z,5.33
2019-05-01T09:38:37.629Z,5.53
2019-05-01T09:41:04.287Z,4.80
2019-05-01T09:43:35.699Z,4.60
2019-05-01T09:46:00.882Z,4.50
2019-05-01T09:48:28.059Z,5.33
2019-05-01T09:50:56.511Z,4.40
2019-05-01T09:53:24.771Z,4.78
2019-05-01T09:55:53.374Z,4.22
2019-05-01T09:58:20.402Z,4.12
2019-05-01T10:00:48.744Z,4.75
2019-05-01T10:03:16.884Z,5.15
2019-05-01T10:05:58.154Z,5.83
2019-05-01T10:08:25.088Z,6.33
2019-05-01T10:10:51.626Z,4.78
2019-05-01T10:13:22.367Z,5.55
2019-05-01T10:15:46.712Z,4.28
2019-05-01T10:18:13.182Z,4.28
2019-05-01T10:20:39.791Z,4.85
2019-05-01T10:23:12.445Z,5.10
2019-05-01T10:25:38.275Z,4.20
2019-05-01T10:28:07.128Z,6.12
2019-05-01T10:30:55.482Z,5.03
2019-05-01T10:33:32.658Z,5.70
2019-05-01T10:36:03.063Z,4.50
2019-05-01T10:38:30.698Z,5.58
2019-05-01T10:40:59.759Z,5.00
2019-05-01T10:43:26.252Z,6.58
2019-05-01T10:45:52.930Z,5.35
2019-05-01T10:48:20.177Z,5.03
2019-05-01T10:50:47.162Z,5.35
2019-05-01T10:53:13.797Z,4.72
2019-05-01T10:55:40.479Z,5.42
2019-05-01T10:58:07.173Z,5.03
2019-05-01T11:00:35.180Z,4.75
2019-05-01T11:03:01.806Z,4.80
2019-05-01T11:05:29.326Z,6.55
2019-05-01T11:07:56.192Z,4.90
2019-05-01T11:10:22.984Z,5.35
2019-05-01T11:12:50.257Z,6.35
2019-05-01T11:15:16.961Z,4.92
2019-05-01T11:17:43.493Z,5.60
2019-05-01T11:20:10.190Z,5.97
2019-05-01T11:22:37.005Z,5.70
2019-05-01T11:25:05.973Z,5.42
2019-05-01T11:27:32.600Z,5.30
2019-05-01T11:29:59.299Z,5.83
2019-05-01T11:32:27.600Z,5.97
2019-05-01T11:35:12.949Z,6.55
2019-05-01T11:37:43.957Z,6.17
2019-05-01T11:40:21.411Z,6.40
2019-05-01T11:43:02.726Z,6.08
2019-05-01T11:45:29.252Z,5.45
2019-05-01T11:47:55.984Z,6.42
2019-05-01T11:50:22.695Z,6.33
2019-05-01T11:52:49.207Z,5.25
2019-05-01T11:55:15.637Z,5.78
2019-05-01T11:57:42.127Z,5.22
2019-05-01T12:00:09.624Z,4.83
2019-05-01T12:02:36.334Z,5.75
2019-05-01T12:05:04.474Z,4.55
2019-05-01T12:07:31.370Z,4.60
2019-05-01T12:09:58.063Z,4.30
2019-05-01T12:12:26.696Z,4.42
2019-05-01T12:14:53.293Z,4.00
2019-05-01T12:17:21.761Z,3.90
2019-05-01T12:19:48.423Z,4.40
2019-05-01T12:22:15.173Z,4.75
2019-05-01T12:24:41.863Z,5.00
2019-05-01T12:27:08.300Z,4.65
2019-05-01T12:29:34.918Z,4.92
2019-05-01T12:32:01.600Z,4.17
2019-05-01T12:34:28.177Z,4.95
2019-05-01T12:37:13.294Z,4.90
2019-05-01T12:39:39.945Z,5.03
2019-05-01T12:42:06.756Z,4.85
2019-05-01T12:44:33.350Z,4.53
2019-05-01T12:47:02.063Z,4.83
2019-05-01T12:49:28.739Z,4.85
2019-05-01T12:52:09.915Z,3.95
2019-05-01T12:54:46.070Z,3.80
2019-05-01T12:57:14.754Z,3.90
2019-05-01T12:59:41.418Z,4.37
2019-05-01T13:02:08.138Z,5.12
2019-05-01T13:04:34.764Z,4.35
2019-05-01T13:07:01.781Z,4.35
2019-05-01T13:09:28.345Z,5.17
2019-05-01T13:11:55.018Z,4.92
2019-05-01T13:14:21.699Z,5.67
2019-05-01T13:16:48.434Z,6.12
2019-05-01T13:19:15.269Z,5.70
2019-05-01T13:21:41.788Z,5.35
2019-05-01T13:24:08.289Z,4.70
2019-05-01T13:26:48.461Z,5.08
2019-05-01T13:29:17.079Z,4.75
2019-05-01T13:32:00.455Z,5.03
2019-05-01T13:34:27.178Z,4.58
2019-05-01T13:37:02.720Z,4.60
2019-05-01T13:39:22.466Z,4.42
2019-05-01T13:41:49.012Z,4.30
2019-05-01T13:44:15.659Z,4.37
2019-05-01T13:46:42.191Z,4.03
2019-05-01T13:49:08.751Z,3.95
2019-05-01T13:51:35.516Z,4.33
2019-05-01T13:54:02.533Z,3.67
2019-05-01T13:56:29.087Z,4.53
2019-05-01T13:58:55.709Z,3.50
2019-05-01T14:01:24.153Z,3.98
2019-05-01T14:03:50.560Z,3.90
2019-05-01T14:06:17.047Z,4.35
2019-05-01T14:08:56.636Z,3.42
2019-05-01T14:11:23.352Z,4.92
2019-05-01T14:13:50.017Z,4.42
2019-05-01T14:16:16.597Z,4.30
2019-05-01T14:18:43.143Z,3.37
2019-05-01T14:21:20.498Z,4.20
2019-05-01T14:24:04.158Z,5.47
2019-05-01T14:26:32.049Z,3.80
2019-05-01T14:28:58.761Z,4.37
2019-05-01T14:31:25.316Z,4.17
2019-05-01T14:33:51.967Z,3.50
2019-05-01T14:36:18.640Z,3.62
2019-05-01T14:38:45.133Z,3.42
2019-05-01T14:41:11.950Z,3.80
2019-05-01T14:43:38.748Z,4.00
2019-05-01T14:46:05.327Z,4.00
2019-05-01T14:48:32.092Z,3.60
2019-05-01T14:51:00.244Z,3.50
2019-05-01T14:53:27.841Z,4.22
2019-05-01T14:55:54.482Z,4.03
2019-05-01T14:58:21.500Z,4.40
2019-05-01T15:00:48.376Z,3.92
2019-05-01T15:03:15.206Z,4.00
2019-05-01T15:05:41.918Z,3.42
2019-05-01T15:08:08.320Z,4.20
2019-05-01T15:10:35.049Z,3.60
2019-05-01T15:13:03.629Z,3.12
2019-05-01T15:15:44.167Z,3.05
2019-05-01T15:18:16.886Z,2.80
2019-05-01T15:20:46.354Z,3.45
2019-05-01T15:23:11.728Z,3.50
2019-05-01T15:25:38.247Z,3.80
2019-05-01T15:28:04.918Z,4.00
2019-05-01T15:30:31.597Z,3.52
2019-05-01T15:32:58.379Z,4.35
2019-05-01T15:35:24.942Z,4.10
2019-05-01T15:37:57.012Z,4.05
2019-05-01T15:43:28.657Z,3.20
2019-05-01T15:46:08.597Z,3.87
2019-05-01T15:48:35.031Z,3.08
2019-05-01T15:51:01.361Z,3.62
2019-05-01T15:53:28.083Z,3.70
2019-05-01T15:55:54.476Z,4.17
2019-05-01T15:58:21.230Z,3.90
2019-05-01T16:00:47.889Z,3.50
2019-05-01T16:03:14.547Z,3.27
2019-05-01T16:05:41.102Z,3.00
2019-05-01T16:08:09.927Z,3.62
2019-05-01T16:10:44.805Z,3.45
2019-05-01T16:13:11.514Z,3.50
2019-05-01T16:15:37.925Z,3.00
2019-05-01T16:18:05.035Z,2.95
2019-05-01T16:20:31.709Z,3.20
2019-05-01T16:22:58.400Z,3.15
2019-05-01T16:25:24.914Z,3.33
2019-05-01T16:27:51.574Z,3.75
2019-05-01T16:30:20.161Z,3.20
2019-05-01T16:32:46.574Z,3.30
2019-05-01T16:35:13.265Z,3.27
2019-05-01T16:37:40.044Z,3.52
2019-05-01T16:40:25.662Z,3.02
2019-05-01T16:42:52.334Z,3.22
2019-05-01T16:45:19.079Z,3.00
2019-05-01T16:47:45.758Z,3.80
2019-05-01T16:50:12.847Z,3.45
2019-05-01T16:52:40.450Z,3.50
2019-05-01T16:55:07.635Z,3.75
2019-05-01T16:57:34.251Z,3.12
2019-05-01T17:00:00.818Z,3.17
2019-05-01T17:02:32.257Z,3.40
2019-05-01T17:05:00.727Z,3.62
2019-05-01T17:07:29.183Z,4.08
2019-05-01T17:10:03.502Z,4.03
2019-05-01T17:12:33.330Z,3.77
2019-05-01T17:14:59.850Z,3.20
2019-05-01T17:17:27.218Z,2.98
2019-05-01T17:19:53.882Z,3.20
2019-05-01T17:22:20.358Z,3.50
2019-05-01T17:24:47.214Z,3.00
2019-05-01T17:27:13.622Z,2.75
2019-05-01T17:29:40.287Z,2.37
2019-05-01T17:32:08.878Z,2.67
2019-05-01T17:34:35.458Z,2.77
2019-05-01T17:37:02.396Z,3.20
2019-05-01T17:39:28.988Z,3.33
2019-05-01T17:41:57.566Z,3.30
2019-05-01T17:44:25.252Z,3.00
2019-05-01T17:46:52.144Z,3.22
2019-05-01T17:49:18.518Z,3.05
2019-05-01T17:51:46.353Z,3.30
2019-05-01T17:54:13.471Z,3.60
2019-05-01T17:56:40.255Z,3.35
2019-05-01T17:59:06.812Z,3.17
2019-05-01T18:01:51.733Z,3.20
2019-05-01T18:04:36.978Z,4.20
2019-05-01T18:09:30.267Z,3.95
2019-05-01T18:11:56.792Z,5.15
2019-05-01T18:14:23.278Z,4.70
2019-05-01T18:16:49.943Z,4.65
2019-05-01T18:19:16.622Z,4.30
2019-05-01T18:21:46.892Z,4.28
2019-05-01T18:24:32.033Z,4.03
2019-05-01T18:27:19.021Z,4.70
2019-05-01T18:29:47.766Z,4.35
2019-05-01T18:32:16.336Z,4.55
2019-05-01T18:34:42.925Z,5.00
2019-05-01T18:37:15.439Z,4.70
2019-05-01T18:39:43.691Z,4.83
2019-05-01T18:42:12.262Z,5.35
2019-05-01T18:44:42.453Z,5.58
2019-05-01T18:47:07.934Z,5.20
2019-05-01T18:49:34.650Z,5.15
2019-05-01T18:52:01.342Z,5.75
2019-05-01T18:54:47.596Z,6.65
2019-05-01T18:57:14.292Z,7.30
2019-05-01T18:59:40.775Z,7.03
2019-05-01T19:02:07.238Z,9.33
2019-05-01T19:04:33.865Z,6.20
2019-05-01T19:07:00.287Z,7.00
2019-05-01T19:09:30.278Z,7.37
2019-05-01T19:11:56.124Z,6.72
2019-05-01T19:14:28.104Z,6.92
2019-05-01T19:16:51.904Z,7.45
2019-05-01T19:19:19.001Z,7.10
2019-05-01T19:21:46.418Z,7.08
2019-05-01T19:24:15.980Z,8.00
2019-05-01T19:26:44.140Z,8.80
2019-05-01T19:29:11.322Z,7.85
2019-05-01T19:31:38.270Z,9.68
2019-05-01T19:34:05.367Z,10.68
2019-05-01T19:36:32.377Z,8.18
2019-05-01T19:38:59.286Z,7.40
2019-05-01T19:41:26.179Z,7.70
2019-05-01T19:43:53.288Z,7.87
2019-05-01T19:46:20.240Z,7.55
2019-05-01T19:48:50.901Z,8.28
2019-05-01T19:51:19.142Z,8.73
2019-05-01T19:53:51.654Z,8.30
2019-05-01T19:56:16.721Z,9.20
2019-05-01T19:58:44.695Z,10.08
2019-05-01T20:01:11.724Z,9.95
2019-05-01T20:03:38.789Z,9.68
2019-05-01T20:06:07.833Z,8.85
2019-05-01T20:08:34.793Z,9.38
2019-05-01T20:11:04.458Z,9.33
2019-05-01T20:13:31.549Z,8.88
2019-05-01T20:15:58.540Z,7.70
2019-05-01T20:18:25.418Z,8.05
2019-05-01T20:20:52.278Z,7.20
2019-05-01T20:23:19.180Z,7.45
2019-05-01T20:25:45.942Z,7.67
2019-05-01T20:28:12.519Z,8.25
2019-05-01T20:30:39.346Z,7.00
2019-05-01T20:33:08.158Z,7.12
2019-05-01T20:35:34.650Z,7.83
2019-05-01T20:38:01.281Z,7.42
2019-05-01T20:40:28.478Z,7.10
2019-05-01T20:42:55.163Z,8.05
2019-05-01T20:45:21.804Z,7.45
2019-05-01T20:47:48.617Z,7.17
2019-05-01T20:50:15.564Z,7.22
2019-05-01T20:52:42.114Z,7.58
2019-05-01T20:55:08.911Z,7.20
2019-05-01T20:57:37.460Z,7.75
2019-05-01T21:00:05.310Z,6.87
2019-05-01T21:02:33.641Z,7.12
2019-05-01T21:05:20.016Z,7.30
2019-05-01T21:08:06.570Z,6.70
2019-05-01T21:10:36.070Z,7.37
2019-05-01T21:13:02.959Z,7.05
2019-05-01T21:15:29.499Z,6.58
2019-05-01T21:17:56.281Z,7.37
2019-05-01T21:20:23.573Z,6.95
2019-05-01T21:22:50.418Z,6.62
2019-05-01T21:25:16.829Z,7.33
2019-05-01T21:27:44.508Z,6.50
2019-05-01T21:30:11.279Z,6.33
2019-05-01T21:32:37.954Z,6.45
2019-05-01T21:35:05.009Z,6.40
2019-05-01T21:37:31.657Z,6.12
2019-05-01T21:39:58.419Z,6.40
2019-05-01T21:42:25.102Z,6.85
2019-05-01T21:44:53.250Z,6.62
2019-05-01T21:47:19.875Z,6.78
2019-05-01T21:49:46.537Z,6.97
2019-05-01T21:52:13.582Z,6.35
2019-05-01T21:54:40.316Z,7.10
2019-05-01T21:57:06.918Z,6.80
2019-05-01T21:59:35.202Z,6.53
2019-05-01T22:02:05.355Z,6.83
2019-05-01T22:04:31.925Z,7.05
2019-05-01T22:06:58.390Z,6.78
2019-05-01T22:09:25.334Z,6.12
2019-05-01T22:11:51.961Z,6.25
2019-05-01T22:14:20.497Z,7.17
2019-05-01T22:16:47.261Z,6.70
2019-05-01T22:19:16.007Z,6.55
2019-05-01T22:21:47.194Z,6.75
2019-05-01T22:24:18.777Z,6.40
2019-05-01T22:26:50.916Z,7.10
2019-05-01T22:29:19.428Z,6.65
2019-05-01T22:32:04.573Z,6.15
2019-05-01T22:34:43.034Z,6.00
2019-05-01T22:37:20.809Z,5.90
2019-05-01T22:39:49.400Z,6.33
2019-05-01T22:42:16.293Z,6.70
2019-05-01T22:44:42.742Z,6.72
2019-05-01T22:47:10.169Z,6.17
2019-05-01T22:49:37.760Z,6.50
2019-05-01T22:52:04.405Z,6.50
2019-05-01T22:54:31.288Z,6.87
2019-05-01T22:56:57.959Z,7.25
2019-05-01T22:59:24.536Z,6.70
2019-05-01T23:01:54.129Z,7.75
2019-05-01T23:04:20.889Z,7.95
2019-05-01T23:06:47.484Z,8.28
2019-05-01T23:09:16.764Z,6.70
2019-05-01T23:11:45.186Z,6.83
2019-05-01T23:14:12.105Z,6.80
2019-05-01T23:16:51.097Z,6.87
2019-05-01T23:19:17.680Z,6.85
2019-05-01T23:21:45.956Z,7.22
2019-05-01T23:24:12.803Z,6.37
2019-05-01T23:26:39.366Z,7.15
2019-05-01T23:29:06.052Z,7.67
2019-05-01T23:31:33.187Z,7.30
2019-05-01T23:33:59.730Z,7.78
2019-05-01T23:36:26.193Z,6.85
2019-05-01T23:38:52.680Z,7.17
2019-05-01T23:41:24.866Z,7.28
2019-05-01T23:43:47.566Z,6.70
2019-05-01T23:46:14.007Z,6.70
2019-05-01T23:48:40.557Z,7.65
2019-05-01T23:51:06.986Z,7.10
2019-05-01T23:53:33.669Z,5.97
2019-05-01T23:56:01.996Z,6.78
2019-05-01T23:58:28.758Z,6.53
